sensor_id;sensor_type;location;lat;lon;timestamp;noise_LAeq;noise_LA_min;noise_LA_max;noise_LA01;noise_LA95
37163;Laerm;23057;48.554;14.454;2022-10-31T00:02:18;50.62;49.18;54.22;;
37163;Laerm;23057;48.554;14.454;2022-10-31T00:04:49;50.60;49.44;54.37;;
37163;Laerm;23057;48.554;14.454;2022-10-31T00:07:19;50.60;49.39;54.35;;
37163;Laerm;23057;48.554;14.454;2022-10-31T00:09:50;50.46;49.20;53.79;;
37163;Laerm;23057;48.554;14.454;2022-10-31T00:12:21;50.43;49.27;54.16;;
37163;Laerm;23057;48.554;14.454;2022-10-31T00:14:52;50.39;49.15;53.90;;
37163;Laerm;23057;48.554;14.454;2022-10-31T00:17:23;50.43;49.30;54.65;;
37163;Laerm;23057;48.554;14.454;2022-10-31T00:19:54;50.39;49.19;54.07;;
37163;Laerm;23057;48.554;14.454;2022-10-31T00:22:25;50.36;49.10;54.09;;
37163;Laerm;23057;48.554;14.454;2022-10-31T00:24:56;50.38;49.25;54.34;;
37163;Laerm;23057;48.554;14.454;2022-10-31T00:27:26;50.37;49.19;53.84;;
37163;Laerm;23057;48.554;14.454;2022-10-31T00:29:58;50.48;49.34;54.30;;
37163;Laerm;23057;48.554;14.454;2022-10-31T00:32:29;50.53;49.34;54.14;;
37163;Laerm;23057;48.554;14.454;2022-10-31T00:35:00;50.67;49.58;53.66;;
37163;Laerm;23057;48.554;14.454;2022-10-31T00:37:31;50.79;49.55;54.36;;
37163;Laerm;23057;48.554;14.454;2022-10-31T00:40:03;50.87;49.56;53.89;;
37163;Laerm;23057;48.554;14.454;2022-10-31T00:42:34;50.64;49.39;54.16;;
37163;Laerm;23057;48.554;14.454;2022-10-31T00:45:05;50.69;49.36;54.07;;
37163;Laerm;23057;48.554;14.454;2022-10-31T00:47:36;50.73;49.50;54.65;;
37163;Laerm;23057;48.554;14.454;2022-10-31T00:50:08;50.88;49.45;54.17;;
37163;Laerm;23057;48.554;14.454;2022-10-31T00:52:39;51.15;49.59;54.12;;
37163;Laerm;23057;48.554;14.454;2022-10-31T00:55:10;50.95;49.36;53.90;;
37163;Laerm;23057;48.554;14.454;2022-10-31T00:57:40;51.03;49.40;54.64;;
37163;Laerm;23057;48.554;14.454;2022-10-31T01:00:12;50.72;49.14;53.84;;
37163;Laerm;23057;48.554;14.454;2022-10-31T01:02:43;50.56;49.11;53.48;;
37163;Laerm;23057;48.554;14.454;2022-10-31T01:05:14;50.54;49.21;54.18;;
37163;Laerm;23057;48.554;14.454;2022-10-31T01:07:45;50.60;49.33;54.28;;
37163;Laerm;23057;48.554;14.454;2022-10-31T01:10:17;50.60;49.46;53.99;;
37163;Laerm;23057;48.554;14.454;2022-10-31T01:12:49;50.61;49.38;53.64;;
37163;Laerm;23057;48.554;14.454;2022-10-31T01:15:22;50.57;49.25;54.83;;
37163;Laerm;23057;48.554;14.454;2022-10-31T01:17:53;50.49;49.23;53.99;;
37163;Laerm;23057;48.554;14.454;2022-10-31T01:20:24;50.58;49.36;54.54;;
37163;Laerm;23057;48.554;14.454;2022-10-31T01:22:54;50.59;48.96;54.40;;
37163;Laerm;23057;48.554;14.454;2022-10-31T01:25:25;50.56;49.32;54.13;;
37163;Laerm;23057;48.554;14.454;2022-10-31T01:27:56;50.48;49.02;54.25;;
37163;Laerm;23057;48.554;14.454;2022-10-31T01:30:27;50.48;49.35;53.88;;
37163;Laerm;23057;48.554;14.454;2022-10-31T01:32:58;50.50;49.15;54.07;;
37163;Laerm;23057;48.554;14.454;2022-10-31T01:35:29;50.71;49.43;55.01;;
37163;Laerm;23057;48.554;14.454;2022-10-31T01:37:59;50.68;49.29;54.37;;
37163;Laerm;23057;48.554;14.454;2022-10-31T01:40:31;50.59;49.35;54.19;;
37163;Laerm;23057;48.554;14.454;2022-10-31T01:43:02;50.54;49.11;53.63;;
37163;Laerm;23057;48.554;14.454;2022-10-31T01:45:33;50.64;49.30;54.45;;
37163;Laerm;23057;48.554;14.454;2022-10-31T01:48:04;50.74;49.23;54.42;;
37163;Laerm;23057;48.554;14.454;2022-10-31T01:50:38;50.79;49.38;54.15;;
37163;Laerm;23057;48.554;14.454;2022-10-31T01:53:12;50.79;49.46;54.67;;
37163;Laerm;23057;48.554;14.454;2022-10-31T01:55:46;50.74;49.28;54.49;;
37163;Laerm;23057;48.554;14.454;2022-10-31T01:58:25;50.90;49.23;55.12;;
37163;Laerm;23057;48.554;14.454;2022-10-31T02:01:01;51.53;49.21;55.98;;
37163;Laerm;23057;48.554;14.454;2022-10-31T02:03:33;51.45;49.25;55.23;;
37163;Laerm;23057;48.554;14.454;2022-10-31T02:06:17;51.23;49.27;55.13;;
37163;Laerm;23057;48.554;14.454;2022-10-31T02:08:53;51.63;49.14;56.47;;
37163;Laerm;23057;48.554;14.454;2022-10-31T02:11:28;52.04;49.42;57.31;;
37163;Laerm;23057;48.554;14.454;2022-10-31T02:14:02;50.80;49.14;55.86;;
37163;Laerm;23057;48.554;14.454;2022-10-31T02:16:33;50.55;49.35;53.93;;
37163;Laerm;23057;48.554;14.454;2022-10-31T02:19:14;50.31;49.20;53.12;;
37163;Laerm;23057;48.554;14.454;2022-10-31T02:22:12;50.22;49.08;53.62;;
37163;Laerm;23057;48.554;14.454;2022-10-31T02:25:03;50.24;49.18;53.64;;
37163;Laerm;23057;48.554;14.454;2022-10-31T02:28:10;50.31;49.04;54.15;;
37163;Laerm;23057;48.554;14.454;2022-10-31T02:33:57;50.32;49.23;54.30;;
37163;Laerm;23057;48.554;14.454;2022-10-31T02:37:03;50.33;48.99;54.09;;
37163;Laerm;23057;48.554;14.454;2022-10-31T02:39:53;50.36;49.10;53.65;;
37163;Laerm;23057;48.554;14.454;2022-10-31T02:42:46;50.33;49.19;52.51;;
37163;Laerm;23057;48.554;14.454;2022-10-31T02:45:35;50.44;49.29;54.17;;
37163;Laerm;23057;48.554;14.454;2022-10-31T02:48:19;50.48;49.19;54.18;;
37163;Laerm;23057;48.554;14.454;2022-10-31T02:50:59;50.50;49.34;53.71;;
37163;Laerm;23057;48.554;14.454;2022-10-31T02:53:36;50.37;49.25;53.95;;
37163;Laerm;23057;48.554;14.454;2022-10-31T02:56:19;50.39;49.16;54.22;;
37163;Laerm;23057;48.554;14.454;2022-10-31T02:59:04;50.38;49.27;54.06;;
37163;Laerm;23057;48.554;14.454;2022-10-31T03:02:22;50.37;49.15;54.43;;
37163;Laerm;23057;48.554;14.454;2022-10-31T03:05:27;50.52;48.98;54.46;;
37163;Laerm;23057;48.554;14.454;2022-10-31T03:11:09;50.55;49.28;54.62;;
37163;Laerm;23057;48.554;14.454;2022-10-31T03:16:47;50.46;49.07;54.65;;
37163;Laerm;23057;48.554;14.454;2022-10-31T03:19:29;50.33;49.24;53.47;;
37163;Laerm;23057;48.554;14.454;2022-10-31T03:22:20;50.31;48.98;54.00;;
37163;Laerm;23057;48.554;14.454;2022-10-31T03:24:54;50.39;49.20;54.05;;
37163;Laerm;23057;48.554;14.454;2022-10-31T03:27:32;50.29;49.12;54.19;;
37163;Laerm;23057;48.554;14.454;2022-10-31T03:30:06;50.19;49.07;54.31;;
37163;Laerm;23057;48.554;14.454;2022-10-31T03:32:48;51.82;49.10;56.15;;
37163;Laerm;23057;48.554;14.454;2022-10-31T03:35:27;50.20;48.83;54.17;;
37163;Laerm;23057;48.554;14.454;2022-10-31T03:38:01;52.24;48.94;56.25;;
37163;Laerm;23057;48.554;14.454;2022-10-31T03:40:38;50.62;49.02;55.70;;
37163;Laerm;23057;48.554;14.454;2022-10-31T03:43:21;53.78;48.83;56.73;;
37163;Laerm;23057;48.554;14.454;2022-10-31T03:45:53;51.75;49.10;55.77;;
37163;Laerm;23057;48.554;14.454;2022-10-31T03:48:26;51.67;48.87;56.28;;
37163;Laerm;23057;48.554;14.454;2022-10-31T03:54:44;51.64;49.08;55.43;;
37163;Laerm;23057;48.554;14.454;2022-10-31T03:57:51;51.56;49.03;55.50;;
37163;Laerm;23057;48.554;14.454;2022-10-31T04:00:25;50.44;49.16;54.71;;
37163;Laerm;23057;48.554;14.454;2022-10-31T04:03:12;50.28;49.08;54.22;;
37163;Laerm;23057;48.554;14.454;2022-10-31T04:05:49;50.21;49.07;54.34;;
37163;Laerm;23057;48.554;14.454;2022-10-31T04:08:32;50.24;49.15;53.43;;
37163;Laerm;23057;48.554;14.454;2022-10-31T04:11:09;50.19;49.14;53.38;;
37163;Laerm;23057;48.554;14.454;2022-10-31T04:13:45;50.26;49.04;54.24;;
37163;Laerm;23057;48.554;14.454;2022-10-31T04:16:18;50.30;49.16;53.79;;
37163;Laerm;23057;48.554;14.454;2022-10-31T04:18:50;50.39;49.11;53.92;;
37163;Laerm;23057;48.554;14.454;2022-10-31T04:21:30;50.34;49.10;54.26;;
37163;Laerm;23057;48.554;14.454;2022-10-31T04:24:01;50.32;49.03;54.58;;
37163;Laerm;23057;48.554;14.454;2022-10-31T04:26:32;50.35;49.04;53.96;;
37163;Laerm;23057;48.554;14.454;2022-10-31T04:29:02;50.86;49.66;54.54;;
37163;Laerm;23057;48.554;14.454;2022-10-31T04:31:33;50.62;49.24;53.72;;
37163;Laerm;23057;48.554;14.454;2022-10-31T04:34:04;50.34;48.78;54.22;;
37163;Laerm;23057;48.554;14.454;2022-10-31T04:36:35;50.53;49.07;54.04;;
37163;Laerm;23057;48.554;14.454;2022-10-31T04:39:06;50.37;49.21;53.85;;
37163;Laerm;23057;48.554;14.454;2022-10-31T04:41:37;50.38;49.06;54.19;;
37163;Laerm;23057;48.554;14.454;2022-10-31T04:44:08;50.51;49.12;54.52;;
37163;Laerm;23057;48.554;14.454;2022-10-31T04:46:38;50.69;49.14;54.86;;
37163;Laerm;23057;48.554;14.454;2022-10-31T04:49:09;50.52;49.08;54.45;;
37163;Laerm;23057;48.554;14.454;2022-10-31T04:51:40;50.31;49.00;53.53;;
37163;Laerm;23057;48.554;14.454;2022-10-31T04:54:11;50.28;48.92;53.73;;
37163;Laerm;23057;48.554;14.454;2022-10-31T04:56:42;50.53;49.21;55.29;;
37163;Laerm;23057;48.554;14.454;2022-10-31T04:59:13;50.86;49.23;54.37;;
37163;Laerm;23057;48.554;14.454;2022-10-31T05:01:44;50.40;49.02;54.23;;
37163;Laerm;23057;48.554;14.454;2022-10-31T05:04:14;50.68;49.39;54.22;;
37163;Laerm;23057;48.554;14.454;2022-10-31T05:06:45;50.48;49.03;54.91;;
37163;Laerm;23057;48.554;14.454;2022-10-31T05:09:16;51.17;49.21;55.11;;
37163;Laerm;23057;48.554;14.454;2022-10-31T05:11:47;50.70;49.08;54.08;;
37163;Laerm;23057;48.554;14.454;2022-10-31T05:14:18;50.42;49.21;53.71;;
37163;Laerm;23057;48.554;14.454;2022-10-31T05:16:48;50.66;49.06;53.96;;
37163;Laerm;23057;48.554;14.454;2022-10-31T05:19:19;50.34;49.12;53.94;;
37163;Laerm;23057;48.554;14.454;2022-10-31T05:21:50;50.75;49.04;54.62;;
37163;Laerm;23057;48.554;14.454;2022-10-31T05:24:21;51.03;49.08;54.78;;
37163;Laerm;23057;48.554;14.454;2022-10-31T05:26:52;51.37;49.20;53.82;;
37163;Laerm;23057;48.554;14.454;2022-10-31T05:29:23;50.40;49.21;54.07;;
37163;Laerm;23057;48.554;14.454;2022-10-31T05:31:53;50.52;49.12;54.14;;
37163;Laerm;23057;48.554;14.454;2022-10-31T05:34:24;50.97;49.73;54.20;;
37163;Laerm;23057;48.554;14.454;2022-10-31T05:36:55;51.00;49.44;54.28;;
37163;Laerm;23057;48.554;14.454;2022-10-31T05:39:26;50.97;49.70;54.57;;
37163;Laerm;23057;48.554;14.454;2022-10-31T05:41:57;51.01;49.70;54.14;;
37163;Laerm;23057;48.554;14.454;2022-10-31T05:44:28;51.03;49.72;53.62;;
37163;Laerm;23057;48.554;14.454;2022-10-31T05:46:58;50.48;49.08;53.68;;
37163;Laerm;23057;48.554;14.454;2022-10-31T05:49:29;50.32;49.15;54.40;;
37163;Laerm;23057;48.554;14.454;2022-10-31T05:52:00;50.41;49.24;53.86;;
37163;Laerm;23057;48.554;14.454;2022-10-31T05:54:31;50.40;49.27;53.66;;
37163;Laerm;23057;48.554;14.454;2022-10-31T05:57:02;50.36;49.27;54.18;;
37163;Laerm;23057;48.554;14.454;2022-10-31T05:59:33;50.41;49.24;53.91;;
37163;Laerm;23057;48.554;14.454;2022-10-31T06:02:04;50.51;49.38;54.32;;
37163;Laerm;23057;48.554;14.454;2022-10-31T06:04:35;50.57;49.46;54.67;;
37163;Laerm;23057;48.554;14.454;2022-10-31T06:07:05;50.64;49.41;53.78;;
37163;Laerm;23057;48.554;14.454;2022-10-31T06:09:36;50.62;49.33;54.11;;
37163;Laerm;23057;48.554;14.454;2022-10-31T06:12:07;50.49;49.19;54.85;;
37163;Laerm;23057;48.554;14.454;2022-10-31T06:14:38;50.47;49.15;54.21;;
37163;Laerm;23057;48.554;14.454;2022-10-31T06:17:09;50.56;49.27;54.87;;
37163;Laerm;23057;48.554;14.454;2022-10-31T06:19:40;50.52;49.27;55.96;;
37163;Laerm;23057;48.554;14.454;2022-10-31T06:22:11;50.51;48.96;55.50;;
37163;Laerm;23057;48.554;14.454;2022-10-31T06:24:42;50.56;49.24;54.41;;
37163;Laerm;23057;48.554;14.454;2022-10-31T06:27:12;50.50;49.24;54.07;;
37163;Laerm;23057;48.554;14.454;2022-10-31T06:29:43;50.60;49.17;54.46;;
37163;Laerm;23057;48.554;14.454;2022-10-31T06:32:17;50.67;49.24;54.35;;
37163;Laerm;23057;48.554;14.454;2022-10-31T06:34:48;50.47;49.30;54.34;;
37163;Laerm;23057;48.554;14.454;2022-10-31T06:37:19;50.43;49.02;54.02;;
37163;Laerm;23057;48.554;14.454;2022-10-31T06:39:50;51.40;49.27;56.90;;
37163;Laerm;23057;48.554;14.454;2022-10-31T06:42:20;51.27;49.78;54.66;;
37163;Laerm;23057;48.554;14.454;2022-10-31T06:44:51;51.96;49.44;57.91;;
37163;Laerm;23057;48.554;14.454;2022-10-31T06:47:22;51.84;49.93;55.48;;
37163;Laerm;23057;48.554;14.454;2022-10-31T06:49:53;52.01;49.93;56.35;;
37163;Laerm;23057;48.554;14.454;2022-10-31T06:52:24;53.42;51.88;55.53;;
37163;Laerm;23057;48.554;14.454;2022-10-31T06:54:55;54.25;51.50;57.72;;
37163;Laerm;23057;48.554;14.454;2022-10-31T06:57:25;55.29;52.25;57.83;;
37163;Laerm;23057;48.554;14.454;2022-10-31T06:59:56;53.88;51.26;60.41;;
37163;Laerm;23057;48.554;14.454;2022-10-31T07:02:27;53.40;51.56;56.13;;
37163;Laerm;23057;48.554;14.454;2022-10-31T07:04:58;56.82;52.44;63.57;;
37163;Laerm;23057;48.554;14.454;2022-10-31T07:07:29;57.07;52.43;62.97;;
37163;Laerm;23057;48.554;14.454;2022-10-31T07:09:59;55.56;51.89;59.36;;
37163;Laerm;23057;48.554;14.454;2022-10-31T07:12:30;55.14;52.91;58.04;;
37163;Laerm;23057;48.554;14.454;2022-10-31T07:15:01;55.16;53.03;58.15;;
37163;Laerm;23057;48.554;14.454;2022-10-31T07:17:32;54.66;52.33;58.90;;
37163;Laerm;23057;48.554;14.454;2022-10-31T07:20:03;54.15;52.24;58.00;;
37163;Laerm;23057;48.554;14.454;2022-10-31T07:22:37;55.45;52.76;58.49;;
37163;Laerm;23057;48.554;14.454;2022-10-31T07:25:09;55.84;53.41;59.01;;
37163;Laerm;23057;48.554;14.454;2022-10-31T07:27:42;55.61;52.89;58.48;;
37163;Laerm;23057;48.554;14.454;2022-10-31T07:30:14;55.88;53.20;59.56;;
37163;Laerm;23057;48.554;14.454;2022-10-31T07:32:49;55.40;52.86;64.33;;
37163;Laerm;23057;48.554;14.454;2022-10-31T07:35:27;55.11;53.28;57.66;;
37163;Laerm;23057;48.554;14.454;2022-10-31T07:38:12;54.60;52.61;57.39;;
37163;Laerm;23057;48.554;14.454;2022-10-31T07:40:48;54.45;52.41;57.23;;
37163;Laerm;23057;48.554;14.454;2022-10-31T07:43:21;54.18;51.91;57.14;;
37163;Laerm;23057;48.554;14.454;2022-10-31T07:45:55;53.82;51.54;56.74;;
37163;Laerm;23057;48.554;14.454;2022-10-31T07:48:26;52.74;50.70;55.66;;
37163;Laerm;23057;48.554;14.454;2022-10-31T07:50:57;52.79;50.59;55.96;;
37163;Laerm;23057;48.554;14.454;2022-10-31T07:53:28;52.51;50.65;55.00;;
37163;Laerm;23057;48.554;14.454;2022-10-31T07:55:59;52.89;50.57;55.92;;
37163;Laerm;23057;48.554;14.454;2022-10-31T07:58:30;52.72;50.74;55.43;;
37163;Laerm;23057;48.554;14.454;2022-10-31T08:01:01;52.34;50.57;55.22;;
37163;Laerm;23057;48.554;14.454;2022-10-31T08:03:31;52.18;50.45;54.68;;
37163;Laerm;23057;48.554;14.454;2022-10-31T08:06:03;52.11;50.32;54.19;;
37163;Laerm;23057;48.554;14.454;2022-10-31T08:08:33;52.00;50.09;54.68;;
37163;Laerm;23057;48.554;14.454;2022-10-31T08:11:05;51.74;50.24;54.05;;
37163;Laerm;23057;48.554;14.454;2022-10-31T08:13:35;52.08;50.51;56.07;;
37163;Laerm;23057;48.554;14.454;2022-10-31T08:16:07;52.05;50.63;57.57;;
37163;Laerm;23057;48.554;14.454;2022-10-31T08:18:37;51.83;50.38;54.65;;
37163;Laerm;23057;48.554;14.454;2022-10-31T08:21:08;51.75;50.40;53.91;;
37163;Laerm;23057;48.554;14.454;2022-10-31T08:23:39;52.25;50.33;60.25;;
37163;Laerm;23057;48.554;14.454;2022-10-31T08:26:10;53.50;51.05;59.01;;
37163;Laerm;23057;48.554;14.454;2022-10-31T08:28:41;52.35;51.01;54.84;;
37163;Laerm;23057;48.554;14.454;2022-10-31T08:31:12;52.21;50.63;55.19;;
37163;Laerm;23057;48.554;14.454;2022-10-31T08:33:43;52.41;50.72;54.71;;
37163;Laerm;23057;48.554;14.454;2022-10-31T08:36:14;52.46;50.77;54.60;;
37163;Laerm;23057;48.554;14.454;2022-10-31T08:38:47;52.14;50.78;54.90;;
37163;Laerm;23057;48.554;14.454;2022-10-31T08:41:18;52.13;50.74;54.92;;
37163;Laerm;23057;48.554;14.454;2022-10-31T08:43:49;52.28;50.86;54.68;;
37163;Laerm;23057;48.554;14.454;2022-10-31T08:46:20;52.38;51.03;55.03;;
37163;Laerm;23057;48.554;14.454;2022-10-31T08:48:52;52.29;50.67;55.03;;
37163;Laerm;23057;48.554;14.454;2022-10-31T08:51:23;52.41;50.98;54.83;;
37163;Laerm;23057;48.554;14.454;2022-10-31T08:53:54;54.34;51.82;56.98;;
37163;Laerm;23057;48.554;14.454;2022-10-31T08:56:25;54.30;51.59;59.37;;
37163;Laerm;23057;48.554;14.454;2022-10-31T08:58:56;55.99;52.00;61.67;;
37163;Laerm;23057;48.554;14.454;2022-10-31T09:01:26;55.43;51.07;61.93;;
37163;Laerm;23057;48.554;14.454;2022-10-31T09:03:57;54.68;50.84;61.30;;
37163;Laerm;23057;48.554;14.454;2022-10-31T09:06:28;55.22;50.80;61.48;;
37163;Laerm;23057;48.554;14.454;2022-10-31T09:08:59;55.25;51.13;62.18;;
37163;Laerm;23057;48.554;14.454;2022-10-31T09:11:32;55.08;51.32;61.66;;
37163;Laerm;23057;48.554;14.454;2022-10-31T09:14:03;54.68;51.05;61.92;;
37163;Laerm;23057;48.554;14.454;2022-10-31T09:16:34;54.72;50.99;61.63;;
37163;Laerm;23057;48.554;14.454;2022-10-31T09:19:05;54.50;50.70;61.13;;
37163;Laerm;23057;48.554;14.454;2022-10-31T09:21:36;54.72;50.75;61.26;;
37163;Laerm;23057;48.554;14.454;2022-10-31T09:24:08;54.55;51.04;61.27;;
37163;Laerm;23057;48.554;14.454;2022-10-31T09:26:38;53.36;50.99;60.26;;
37163;Laerm;23057;48.554;14.454;2022-10-31T09:29:09;53.31;51.69;55.99;;
37163;Laerm;23057;48.554;14.454;2022-10-31T09:31:42;53.27;51.67;56.95;;
37163;Laerm;23057;48.554;14.454;2022-10-31T09:34:14;53.13;51.45;56.82;;
37163;Laerm;23057;48.554;14.454;2022-10-31T09:36:44;52.96;51.12;55.65;;
37163;Laerm;23057;48.554;14.454;2022-10-31T09:39:16;53.48;51.31;56.34;;
37163;Laerm;23057;48.554;14.454;2022-10-31T09:45:55;52.42;50.95;55.33;;
37163;Laerm;23057;48.554;14.454;2022-10-31T09:48:40;57.22;50.84;61.72;;
37163;Laerm;23057;48.554;14.454;2022-10-31T09:51:33;53.93;50.92;60.50;;
37163;Laerm;23057;48.554;14.454;2022-10-31T09:54:16;52.75;51.15;56.12;;
37163;Laerm;23057;48.554;14.454;2022-10-31T09:56:49;52.99;51.44;56.53;;
37163;Laerm;23057;48.554;14.454;2022-10-31T09:59:39;52.89;51.37;56.98;;
37163;Laerm;23057;48.554;14.454;2022-10-31T10:02:44;53.00;51.38;57.51;;
37163;Laerm;23057;48.554;14.454;2022-10-31T10:05:32;52.57;51.06;56.86;;
37163;Laerm;23057;48.554;14.454;2022-10-31T10:08:31;52.81;51.14;56.77;;
37163;Laerm;23057;48.554;14.454;2022-10-31T10:17:44;53.21;51.58;57.86;;
37163;Laerm;23057;48.554;14.454;2022-10-31T10:21:14;53.09;51.29;57.68;;
37163;Laerm;23057;48.554;14.454;2022-10-31T10:32:57;53.58;51.53;57.30;;
37163;Laerm;23057;48.554;14.454;2022-10-31T10:35:48;53.54;51.64;58.66;;
37163;Laerm;23057;48.554;14.454;2022-10-31T10:38:30;53.43;51.39;57.75;;
37163;Laerm;23057;48.554;14.454;2022-10-31T10:41:16;53.36;51.22;57.61;;
37163;Laerm;23057;48.554;14.454;2022-10-31T10:43:51;53.55;51.35;55.54;;
37163;Laerm;23057;48.554;14.454;2022-10-31T10:46:50;54.07;52.12;59.65;;
37163;Laerm;23057;48.554;14.454;2022-10-31T10:49:50;53.28;51.74;55.67;;
37163;Laerm;23057;48.554;14.454;2022-10-31T10:55:39;53.00;51.26;56.02;;
37163;Laerm;23057;48.554;14.454;2022-10-31T10:58:12;52.97;51.15;55.53;;
37163;Laerm;23057;48.554;14.454;2022-10-31T11:00:46;53.44;51.78;56.01;;
37163;Laerm;23057;48.554;14.454;2022-10-31T11:03:19;53.63;51.97;55.89;;
37163;Laerm;23057;48.554;14.454;2022-10-31T11:05:57;53.59;51.68;55.31;;
37163;Laerm;23057;48.554;14.454;2022-10-31T11:08:36;53.74;51.67;55.88;;
37163;Laerm;23057;48.554;14.454;2022-10-31T11:13:56;53.70;52.00;56.95;;
37163;Laerm;23057;48.554;14.454;2022-10-31T11:16:36;53.41;51.45;56.18;;
37163;Laerm;23057;48.554;14.454;2022-10-31T11:19:23;53.61;51.78;57.01;;
37163;Laerm;23057;48.554;14.454;2022-10-31T11:22:08;53.11;51.47;64.09;;
37163;Laerm;23057;48.554;14.454;2022-10-31T11:24:44;52.84;51.30;55.27;;
37163;Laerm;23057;48.554;14.454;2022-10-31T11:27:25;53.16;51.57;65.13;;
37163;Laerm;23057;48.554;14.454;2022-10-31T11:30:06;53.10;51.56;63.58;;
37163;Laerm;23057;48.554;14.454;2022-10-31T11:32:50;52.97;51.56;54.84;;
37163;Laerm;23057;48.554;14.454;2022-10-31T11:35:25;53.24;51.80;55.87;;
37163;Laerm;23057;48.554;14.454;2022-10-31T11:38:06;53.14;51.52;56.35;;
37163;Laerm;23057;48.554;14.454;2022-10-31T11:40:36;52.85;51.08;56.20;;
37163;Laerm;23057;48.554;14.454;2022-10-31T11:43:18;55.59;51.95;58.81;;
37163;Laerm;23057;48.554;14.454;2022-10-31T11:45:50;55.54;53.07;58.30;;
37163;Laerm;23057;48.554;14.454;2022-10-31T11:48:24;55.72;52.95;59.85;;
37163;Laerm;23057;48.554;14.454;2022-10-31T11:50:58;55.66;52.92;60.14;;
37163;Laerm;23057;48.554;14.454;2022-10-31T11:53:34;55.09;53.09;58.72;;
37163;Laerm;23057;48.554;14.454;2022-10-31T11:56:15;54.61;52.06;57.61;;
37163;Laerm;23057;48.554;14.454;2022-10-31T11:59:12;54.45;52.28;57.78;;
37163;Laerm;23057;48.554;14.454;2022-10-31T12:01:52;54.56;52.26;57.50;;
37163;Laerm;23057;48.554;14.454;2022-10-31T12:04:40;54.43;51.38;57.87;;
37163;Laerm;23057;48.554;14.454;2022-10-31T12:07:12;53.99;51.59;57.44;;
37163;Laerm;23057;48.554;14.454;2022-10-31T12:09:43;54.41;52.59;58.41;;
37163;Laerm;23057;48.554;14.454;2022-10-31T12:15:36;54.41;52.30;57.89;;
37163;Laerm;23057;48.554;14.454;2022-10-31T12:18:53;54.45;52.16;58.19;;
37163;Laerm;23057;48.554;14.454;2022-10-31T12:22:05;54.47;52.69;58.60;;
37163;Laerm;23057;48.554;14.454;2022-10-31T12:31:46;54.78;53.07;58.82;;
37163;Laerm;23057;48.554;14.454;2022-10-31T12:35:00;54.53;52.33;60.13;;
37163;Laerm;23057;48.554;14.454;2022-10-31T12:50:55;55.11;52.48;57.11;;
37163;Laerm;23057;48.554;14.454;2022-10-31T13:00:16;55.29;53.29;57.20;;
37163;Laerm;23057;48.554;14.454;2022-10-31T13:06:03;55.92;54.05;57.51;;
37163;Laerm;23057;48.554;14.454;2022-10-31T13:08:55;55.85;54.02;57.48;;
37163;Laerm;23057;48.554;14.454;2022-10-31T13:11:40;56.16;53.18;57.95;;
37163;Laerm;23057;48.554;14.454;2022-10-31T13:14:49;56.26;54.30;58.26;;
37163;Laerm;23057;48.554;14.454;2022-10-31T13:17:45;55.72;53.66;57.54;;
37163;Laerm;23057;48.554;14.454;2022-10-31T13:20:35;55.34;53.04;57.48;;
37163;Laerm;23057;48.554;14.454;2022-10-31T13:23:34;55.60;53.85;57.41;;
37163;Laerm;23057;48.554;14.454;2022-10-31T13:26:15;55.84;53.78;57.69;;
37163;Laerm;23057;48.554;14.454;2022-10-31T13:29:33;55.73;53.46;57.49;;
37163;Laerm;23057;48.554;14.454;2022-10-31T13:32:08;55.58;53.55;57.40;;
37163;Laerm;23057;48.554;14.454;2022-10-31T13:34:52;56.04;54.15;57.62;;
37163;Laerm;23057;48.554;14.454;2022-10-31T13:37:49;55.78;53.50;57.66;;
37163;Laerm;23057;48.554;14.454;2022-10-31T13:41:03;55.99;53.42;57.94;;
37163;Laerm;23057;48.554;14.454;2022-10-31T13:46:43;55.47;53.22;58.84;;
37163;Laerm;23057;48.554;14.454;2022-10-31T13:54:48;55.62;53.34;57.66;;
37163;Laerm;23057;48.554;14.454;2022-10-31T13:57:41;56.07;52.59;58.61;;
37163;Laerm;23057;48.554;14.454;2022-10-31T14:02:56;56.74;53.61;58.82;;
37163;Laerm;23057;48.554;14.454;2022-10-31T14:05:33;56.68;53.93;58.80;;
37163;Laerm;23057;48.554;14.454;2022-10-31T14:08:19;56.86;54.79;58.54;;
37163;Laerm;23057;48.554;14.454;2022-10-31T14:10:54;56.82;54.87;58.93;;
37163;Laerm;23057;48.554;14.454;2022-10-31T14:13:46;56.28;53.31;58.21;;
37163;Laerm;23057;48.554;14.454;2022-10-31T14:16:28;56.52;54.08;58.28;;
37163;Laerm;23057;48.554;14.454;2022-10-31T14:19:17;56.10;53.43;58.79;;
37163;Laerm;23057;48.554;14.454;2022-10-31T14:21:50;56.74;54.10;58.71;;
37163;Laerm;23057;48.554;14.454;2022-10-31T14:27:30;56.24;53.07;58.74;;
37163;Laerm;23057;48.554;14.454;2022-10-31T14:29:54;55.55;52.94;57.65;;
37163;Laerm;23057;48.554;14.454;2022-10-31T14:32:27;55.67;53.22;57.73;;
37163;Laerm;23057;48.554;14.454;2022-10-31T14:34:59;55.10;53.27;57.03;;
37163;Laerm;23057;48.554;14.454;2022-10-31T14:41:01;55.44;53.88;57.65;;
37163;Laerm;23057;48.554;14.454;2022-10-31T14:47:10;55.57;53.79;57.62;;
37163;Laerm;23057;48.554;14.454;2022-10-31T14:50:53;55.11;52.96;57.42;;
37163;Laerm;23057;48.554;14.454;2022-10-31T14:53:49;55.43;53.77;57.45;;
37163;Laerm;23057;48.554;14.454;2022-10-31T14:56:29;55.34;53.35;57.38;;
37163;Laerm;23057;48.554;14.454;2022-10-31T14:59:16;55.64;53.46;57.51;;
37163;Laerm;23057;48.554;14.454;2022-10-31T15:02:20;55.14;53.36;57.14;;
37163;Laerm;23057;48.554;14.454;2022-10-31T15:04:56;55.31;53.80;57.00;;
37163;Laerm;23057;48.554;14.454;2022-10-31T15:07:27;54.97;52.97;57.21;;
37163;Laerm;23057;48.554;14.454;2022-10-31T15:10:06;55.23;53.60;57.07;;
37163;Laerm;23057;48.554;14.454;2022-10-31T15:12:49;55.10;53.34;56.91;;
37163;Laerm;23057;48.554;14.454;2022-10-31T15:15:25;54.87;53.10;56.65;;
37163;Laerm;23057;48.554;14.454;2022-10-31T15:18:03;54.75;52.89;56.60;;
37163;Laerm;23057;48.554;14.454;2022-10-31T15:20:44;54.36;51.91;57.17;;
37163;Laerm;23057;48.554;14.454;2022-10-31T15:23:29;54.52;52.80;57.81;;
37163;Laerm;23057;48.554;14.454;2022-10-31T15:26:04;54.53;52.77;56.36;;
37163;Laerm;23057;48.554;14.454;2022-10-31T15:28:36;54.45;52.66;56.54;;
37163;Laerm;23057;48.554;14.454;2022-10-31T15:31:17;54.47;52.65;57.18;;
37163;Laerm;23057;48.554;14.454;2022-10-31T15:33:50;54.26;52.23;56.36;;
37163;Laerm;23057;48.554;14.454;2022-10-31T15:36:25;54.97;53.09;56.79;;
37163;Laerm;23057;48.554;14.454;2022-10-31T15:38:57;54.56;52.67;58.75;;
37163;Laerm;23057;48.554;14.454;2022-10-31T15:41:52;54.41;52.50;58.16;;
37163;Laerm;23057;48.554;14.454;2022-10-31T15:44:31;54.14;52.26;56.12;;
37163;Laerm;23057;48.554;14.454;2022-10-31T15:47:15;53.96;51.85;55.91;;
37163;Laerm;23057;48.554;14.454;2022-10-31T15:49:57;53.60;51.80;55.58;;
37163;Laerm;23057;48.554;14.454;2022-10-31T15:52:43;53.88;51.66;56.00;;
37163;Laerm;23057;48.554;14.454;2022-10-31T15:55:27;53.35;51.25;59.71;;
37163;Laerm;23057;48.554;14.454;2022-10-31T15:58:10;53.52;51.68;55.81;;
37163;Laerm;23057;48.554;14.454;2022-10-31T16:00:42;53.14;51.13;55.13;;